Padre Island — WDB4436 — position and weather

sailwx.info

Track history (hours):
 
Tides and Currents Weather Stations Pressure Air Temp Water Temp Dewpoint Dewpoint Depression Visibility Wind Speed Wind Dir Waves Ship Positions

Padre Island

Owner: Great Lakes Dredge & Dock Company, Oak Brook, IL. More information available from US FCC via Universal Licensing System and Coast Guard Vessel Documentation Center.

Last reported at 2014-Nov-11 11:17 UTC. Time now 2014-Nov-22 16:40 UTC.
Position N 41°18' W 073°57'.
Warning: this ship's position is 11 days out of date.

Length 86 m; draft 19.6 m.

Type: Dredging. MMSI: 367525000.

Date/timePositionNaut miles runAvg speedWind from/ knotsBaromVisibWave heightAir tempDewpointWater temp
2014-Nov-11 11:17N 41°18' W 073°57'7 9.1
2014-Nov-11 10:32N 41°11' W 073°56'9 9.5
2014-Nov-11 09:33N 41°02' W 073°53'1010.1
2014-Nov-11 08:33N 40°52' W 073°56'10 9.8
2014-Nov-11 07:33N 40°43' W 074°01'9 9.4
2014-Nov-11 06:33N 40°34' W 074°02'9 9.4
2014-Nov-11 05:33N 40°28' W 073°52'10 9.4
2014-Nov-11 04:31N 40°19' W 073°46'1010.1
2014-Nov-11 03:33N 40°10' W 073°45'1010.2
2014-Nov-11 02:33N 39°60' W 073°43'1010.2
2014-Nov-11 01:32N 39°49' W 073°42'2110.0
2014-Nov-10 23:29N 39°30' W 073°51'68 6.2
2014-Nov-10 12:25N 39°10' W 075°16'1011.7
2014-Nov-10 11:33N 39°18' W 075°23'1313.5
2014-Nov-10 10:33N 39°29' W 075°34'1211.9
2014-Nov-10 09:33N 39°41' W 075°31'1111.4
2014-Nov-10 08:33N 39°50' W 075°22'9 4.5
2014-Nov-10 06:31N 39°53' W 075°11'1 0.5
2014-Nov-10 05:32N 39°53' W 075°12'0 0.0
2014-Nov-10 04:32N 39°53' W 075°12'0 0.0
2014-Nov-10 03:33N 39°53' W 075°12'0 0.0
2014-Nov-10 02:31N 39°53' W 075°12'0 0.0
2014-Nov-10 01:33N 39°53' W 075°12'1 0.0
2014-Nov-09 10:26N 39°53' W 075°11'1 0.0
2014-Nov-07 22:11N 39°53' W 075°10'1 0.0
2014-Nov-06 07:04N 39°53' W 075°11'1 0.3
2014-Nov-06 05:21N 39°53' W 075°11'1 1.1
2014-Nov-06 04:27N 39°53' W 075°12'4 0.2
2014-Nov-05 10:10N 39°56' W 075°08'0 0.0
2014-Nov-05 09:30N 39°56' W 075°08'0 0.1
2014-Nov-05 06:12N 39°55' W 075°08'1 0.2
2014-Nov-05 03:32N 39°56' W 075°08'0 0.4
2014-Nov-05 02:33N 39°55' W 075°08'4 3.7
2014-Nov-05 01:33N 39°53' W 075°12'3 3.0
2014-Nov-05 00:28N 39°54' W 075°08'1 0.9
2014-Nov-04 23:04N 39°56' W 075°08'0 0.1
2014-Nov-04 22:21N 39°56' W 075°08'4 3.4
2014-Nov-04 21:11N 39°53' W 075°12'1 0.2
2014-Nov-04 17:28N 39°53' W 075°11'3 1.0
2014-Nov-04 14:06N 39°56' W 075°08'3 5.4
2014-Nov-04 13:33N 39°53' W 075°09'2 2.0
2014-Nov-04 12:33N 39°53' W 075°12'0 0.0
2014-Nov-04 11:33N 39°53' W 075°12'1 0.1
2014-Nov-04 06:10N 39°53' W 075°11'3 0.2
2014-Nov-03 14:13N 39°55' W 075°08'  
Track history (hours):
 
Tides and Currents Weather Stations Pressure Air Temp Water Temp Dewpoint Dewpoint Depression Visibility Wind Speed Wind Dir Waves Ship Positions

Padre Island

Owner: Great Lakes Dredge & Dock Company, Oak Brook, IL. More information available from US FCC via Universal Licensing System and Coast Guard Vessel Documentation Center.

Last reported at 2014-Nov-11 11:17 UTC. Time now 2014-Nov-22 16:40 UTC.
Position N 41°18' W 073°57'.
Warning: this ship's position is 11 days out of date.

Length 86 m; draft 19.6 m.

Type: Dredging. MMSI: 367525000.

Date/timePositionNaut miles runAvg speedWind from/ knotsBaromVisibWave heightAir tempDewpointWater temp
2014-Nov-11 11:17N 41°18' W 073°57'7 9.1
2014-Nov-11 10:32N 41°11' W 073°56'9 9.5
2014-Nov-11 09:33N 41°02' W 073°53'1010.1
2014-Nov-11 08:33N 40°52' W 073°56'10 9.8
2014-Nov-11 07:33N 40°43' W 074°01'9 9.4
2014-Nov-11 06:33N 40°34' W 074°02'9 9.4
2014-Nov-11 05:33N 40°28' W 073°52'10 9.4
2014-Nov-11 04:31N 40°19' W 073°46'1010.1
2014-Nov-11 03:33N 40°10' W 073°45'1010.2
2014-Nov-11 02:33N 39°60' W 073°43'1010.2
2014-Nov-11 01:32N 39°49' W 073°42'2110.0
2014-Nov-10 23:29N 39°30' W 073°51'68 6.2
2014-Nov-10 12:25N 39°10' W 075°16'1011.7
2014-Nov-10 11:33N 39°18' W 075°23'1313.5
2014-Nov-10 10:33N 39°29' W 075°34'1211.9
2014-Nov-10 09:33N 39°41' W 075°31'1111.4
2014-Nov-10 08:33N 39°50' W 075°22'9 4.5
2014-Nov-10 06:31N 39°53' W 075°11'1 0.5
2014-Nov-10 05:32N 39°53' W 075°12'0 0.0
2014-Nov-10 04:32N 39°53' W 075°12'0 0.0
2014-Nov-10 03:33N 39°53' W 075°12'0 0.0
2014-Nov-10 02:31N 39°53' W 075°12'0 0.0
2014-Nov-10 01:33N 39°53' W 075°12'1 0.0
2014-Nov-09 10:26N 39°53' W 075°11'1 0.0
2014-Nov-07 22:11N 39°53' W 075°10'1 0.0
2014-Nov-06 07:04N 39°53' W 075°11'1 0.3
2014-Nov-06 05:21N 39°53' W 075°11'1 1.1
2014-Nov-06 04:27N 39°53' W 075°12'4 0.2
2014-Nov-05 10:10N 39°56' W 075°08'0 0.0
2014-Nov-05 09:30N 39°56' W 075°08'0 0.1
2014-Nov-05 06:12N 39°55' W 075°08'1 0.2
2014-Nov-05 03:32N 39°56' W 075°08'0 0.4
2014-Nov-05 02:33N 39°55' W 075°08'4 3.7
2014-Nov-05 01:33N 39°53' W 075°12'3 3.0
2014-Nov-05 00:28N 39°54' W 075°08'1 0.9
2014-Nov-04 23:04N 39°56' W 075°08'0 0.1
2014-Nov-04 22:21N 39°56' W 075°08'4 3.4
2014-Nov-04 21:11N 39°53' W 075°12'1 0.2
2014-Nov-04 17:28N 39°53' W 075°11'3 1.0
2014-Nov-04 14:06N 39°56' W 075°08'3 5.4
2014-Nov-04 13:33N 39°53' W 075°09'2 2.0
2014-Nov-04 12:33N 39°53' W 075°12'0 0.0
2014-Nov-04 11:33N 39°53' W 075°12'1 0.1
2014-Nov-04 06:10N 39°53' W 075°11'3 0.2
2014-Nov-03 14:13N 39°55' W 075°08'  

Dump ship's entire track history